ENNH weather

Namsos Heliport, Hospital
Namsos, Nord-Trøndelag, Norway

Public forecast

Using degrees Celsius for public forecast. Weather courtesy of forecast.io.

METAR (pilot weather report)

Report is more than 2 hours old.

Closest report is Namsos Høknesøra Airport, 1.9 nm (3.6 km) E. Retrieved 2019/07/17 08:20 UTC (3 hours ago):

ENNM 170820Z VRB03KT 9999 SCT036 16/08 Q1013

TAF (pilot weather forecast)

Closest forecast is Trondheim Airport Værnes, 62.7 nm (116.1 km) SSW. Retrieved 2019/07/17 06:57 UTC (5 hours ago):

TAF ENVA 170500Z 1706/1806 11005KT 9999 FEW010 SCT035 BECMG 1708/1710 27010KT BECMG 1718/1720 11005KT